Time;durP1;ratioP1;P1;durP2;ratioP2;P2;SDS_P1;SDS_P2;PMS_P1;PMS_P2;Temp;Humidity;BMP_temperature;BMP_pressure;BME280_temperature;BME280_humidity;BME280_pressure;Samples;Min_cycle;Max_cycle;Signal;HPM_P1;HPM_P2
2021/07/04 00:00:17;;;;;;;11.33;9.73;;;17.50;99.90;;;;;;4973121;28;20438;-96
2021/07/04 00:02:43;;;;;;;10.70;9.70;;;17.50;99.90;;;;;;4960201;28;20454;-96
2021/07/04 00:05:12;;;;;;;11.80;10.60;;;17.40;99.90;;;;;;4976461;28;20461;-96
2021/07/04 00:07:41;;;;;;;10.60;9.60;;;17.40;99.90;;;;;;4954333;28;20458;-96
2021/07/04 00:10:10;;;;;;;11.57;10.40;;;17.40;99.90;;;;;;4970721;28;20524;-96
2021/07/04 00:12:36;;;;;;;10.40;9.40;;;17.30;99.90;;;;;;4967877;28;20445;-96
2021/07/04 00:15:10;;;;;;;10.70;9.80;;;17.40;99.90;;;;;;4957051;28;20446;-93
2021/07/04 00:17:35;;;;;;;10.67;9.57;;;17.20;99.90;;;;;;4938901;28;20446;-94
2021/07/04 00:20:06;;;;;;;11.20;10.00;;;17.20;99.90;;;;;;4936132;28;20451;-93
2021/07/04 00:22:32;;;;;;;10.97;9.87;;;17.20;99.90;;;;;;4950860;28;20560;-92
2021/07/04 00:24:57;;;;;;;10.80;9.70;;;17.20;99.90;;;;;;4937507;28;20449;-93
2021/07/04 00:27:23;;;;;;;11.03;9.97;;;17.20;99.90;;;;;;4941051;28;20214;-94
2021/07/04 00:29:48;;;;;;;11.03;10.13;;;17.20;99.90;;;;;;4939712;28;20240;-94
2021/07/04 00:32:14;;;;;;;12.03;10.93;;;17.10;99.90;;;;;;4938685;28;20183;-96
2021/07/04 00:34:40;;;;;;;11.70;10.50;;;17.10;99.90;;;;;;4939533;28;20213;-93
2021/07/04 00:37:05;;;;;;;11.53;10.43;;;17.10;99.90;;;;;;4953861;28;20323;-93
2021/07/04 00:39:31;;;;;;;11.10;10.10;;;17.10;99.90;;;;;;4941658;28;20221;-94
2021/07/04 00:41:57;;;;;;;10.93;9.87;;;17.10;99.90;;;;;;4939003;28;20763;-96
2021/07/04 00:44:22;;;;;;;11.27;10.27;;;17.10;99.90;;;;;;4962604;28;20245;-96
2021/07/04 00:46:48;;;;;;;11.57;10.47;;;17.00;99.90;;;;;;5033959;23;20209;-96
2021/07/04 00:49:14;;;;;;;10.80;9.70;;;17.00;99.90;;;;;;4985013;28;20249;-96
2021/07/04 00:51:40;;;;;;;10.60;9.70;;;17.00;99.90;;;;;;4990584;28;20195;-96
2021/07/04 00:56:42;;;;;;;11.60;10.40;;;17.00;99.90;;;;;;5103582;23;20233;-95
2021/07/04 00:59:07;;;;;;;11.07;9.37;;;17.00;99.90;;;;;;4974985;28;21583;-96
2021/07/04 01:06:55;;;;;;;10.53;9.57;;;17.00;99.90;;;;;;4953854;28;20802;-96
2021/07/04 01:09:21;;;;;;;12.03;10.97;;;17.00;99.90;;;;;;4974973;28;20489;-96
2021/07/04 01:19:35;;;;;;;10.73;9.73;;;17.10;99.90;;;;;;5084679;23;22543;-96
2021/07/04 01:22:03;;;;;;;9.40;8.60;;;17.00;99.90;;;;;;4943514;28;20586;-95
2021/07/04 01:24:29;;;;;;;10.23;9.30;;;17.00;99.90;;;;;;4922133;29;20567;-95
2021/07/04 01:26:55;;;;;;;10.23;9.37;;;17.10;99.90;;;;;;4937010;29;20487;-96
2021/07/04 01:39:37;;;;;;;11.83;10.73;;;16.80;99.90;;;;;;4941592;28;20843;-95
2021/07/04 01:42:03;;;;;;;11.07;10.10;;;16.90;99.90;;;;;;4943148;28;20458;-96
2021/07/04 01:44:29;;;;;;;10.20;9.10;;;16.90;99.90;;;;;;4939987;28;20231;-96
2021/07/04 01:46:55;;;;;;;11.07;9.97;;;16.90;99.90;;;;;;4941001;28;20957;-96
2021/07/04 01:49:21;;;;;;;10.77;9.87;;;16.90;99.90;;;;;;4938081;28;20897;-96
2021/07/04 01:51:46;;;;;;;9.10;8.30;;;16.90;99.90;;;;;;4950124;28;20191;-94
2021/07/04 01:54:12;;;;;;;11.10;8.63;;;17.00;99.90;;;;;;4936738;28;20179;-94
2021/07/04 01:56:38;;;;;;;8.80;8.00;;;17.00;99.90;;;;;;4950081;28;20194;-94
2021/07/04 01:59:03;;;;;;;8.77;7.87;;;17.00;99.90;;;;;;4947969;28;20203;-95
2021/07/04 02:01:29;;;;;;;8.80;8.00;;;17.10;99.90;;;;;;4936963;28;20689;-96
2021/07/04 02:03:55;;;;;;;9.37;8.07;;;17.10;99.90;;;;;;4942177;28;20556;-95
2021/07/04 02:06:20;;;;;;;11.23;8.30;;;17.00;99.90;;;;;;4941256;28;23250;-96
2021/07/04 02:08:46;;;;;;;10.23;9.43;;;17.00;99.90;;;;;;4944082;28;20206;-96
2021/07/04 02:11:12;;;;;;;9.80;8.57;;;16.90;99.90;;;;;;4960365;28;20234;-95
2021/07/04 02:13:38;;;;;;;9.23;8.37;;;17.00;99.90;;;;;;4970447;28;20645;-96
2021/07/04 02:16:04;;;;;;;8.83;8.13;;;16.90;99.90;;;;;;4953815;28;20269;-96
2021/07/04 02:18:30;;;;;;;9.13;8.30;;;16.80;99.90;;;;;;4947749;28;20207;-96
2021/07/04 02:20:56;;;;;;;10.73;9.33;;;16.70;99.90;;;;;;4958970;28;20457;-96
2021/07/04 02:23:31;;;;;;;10.80;9.70;;;16.60;99.90;;;;;;4963793;28;20198;-96
2021/07/04 02:25:57;;;;;;;9.00;8.20;;;16.50;99.90;;;;;;4949356;28;20450;-96
2021/07/04 02:28:28;;;;;;;10.00;9.10;;;16.40;99.90;;;;;;4954789;28;21022;-96
2021/07/04 02:31:00;;;;;;;9.53;8.60;;;16.30;99.90;;;;;;4976488;28;20510;-96
2021/07/04 02:33:27;;;;;;;10.03;9.13;;;16.20;99.90;;;;;;4967172;28;20526;-96
2021/07/04 02:38:43;;;;;;;10.60;9.70;;;16.00;99.90;;;;;;5039026;23;20463;-96
2021/07/04 02:41:32;;;;;;;9.30;8.40;;;15.90;99.90;;;;;;4986949;28;20483;-96
2021/07/04 02:43:58;;;;;;;9.80;8.90;;;15.90;99.90;;;;;;4995543;28;20441;-96
2021/07/04 02:54:15;;;;;;;9.50;8.43;;;15.90;99.90;;;;;;4941959;28;20478;-95
2021/07/04 02:56:41;;;;;;;9.70;8.80;;;16.00;99.90;;;;;;4940839;28;20457;-95
2021/07/04 02:59:06;;;;;;;10.90;8.93;;;16.00;99.90;;;;;;4941415;28;20246;-96
2021/07/04 03:01:32;;;;;;;9.70;8.80;;;16.00;99.90;;;;;;4942974;28;20205;-95
2021/07/04 03:03:58;;;;;;;12.40;9.90;;;15.90;99.90;;;;;;4943539;28;20222;-94
2021/07/04 03:06:23;;;;;;;9.80;8.90;;;16.00;99.90;;;;;;4941869;28;20187;-96
2021/07/04 03:08:50;;;;;;;9.10;8.20;;;16.10;99.90;;;;;;4947534;28;20322;-96
2021/07/04 03:11:16;;;;;;;10.93;8.70;;;16.10;99.90;;;;;;4941945;28;20223;-96
2021/07/04 03:13:41;;;;;;;10.83;9.70;;;16.10;99.90;;;;;;4963975;28;20528;-96
2021/07/04 03:16:12;;;;;;;9.90;9.10;;;16.00;99.90;;;;;;4946534;28;20222;-96
2021/07/04 03:22:08;;;;;;;8.60;7.90;;;16.00;99.90;;;;;;4954280;28;20476;-96
2021/07/04 03:24:39;;;;;;;8.10;7.40;;;16.00;99.90;;;;;;4949345;28;20446;-96
2021/07/04 03:27:09;;;;;;;11.80;7.70;;;16.00;99.90;;;;;;4947110;28;20457;-96
2021/07/04 03:29:35;;;;;;;9.60;8.60;;;16.00;99.90;;;;;;4944434;28;20466;-96
2021/07/04 03:32:03;;;;;;;10.10;8.13;;;16.00;99.90;;;;;;4944729;28;20457;-96
2021/07/04 03:34:29;;;;;;;8.03;7.43;;;16.00;99.90;;;;;;4958524;28;20440;-96
2021/07/04 03:37:02;;;;;;;8.50;7.77;;;16.00;99.90;;;;;;4961620;28;20561;-96
2021/07/04 03:39:28;;;;;;;11.30;10.20;;;16.00;99.90;;;;;;4940740;28;20446;-95
2021/07/04 03:41:53;;;;;;;9.97;9.10;;;16.00;99.90;;;;;;4940712;28;20465;-95
2021/07/04 03:44:19;;;;;;;10.60;9.60;;;16.10;99.90;;;;;;4950683;28;20669;-96
2021/07/04 03:46:45;;;;;;;10.30;9.10;;;16.20;99.90;;;;;;4936854;28;20199;-95
2021/07/04 03:49:10;;;;;;;9.17;8.37;;;16.20;99.90;;;;;;4956187;28;20194;-95
2021/07/04 03:51:36;;;;;;;9.37;8.57;;;16.30;99.90;;;;;;4940217;28;20763;-96
2021/07/04 03:54:02;;;;;;;8.53;7.80;;;16.30;99.90;;;;;;4936782;28;20210;-95
2021/07/04 03:56:27;;;;;;;10.57;9.57;;;16.40;99.90;;;;;;4955808;28;20307;-96
2021/07/04 03:58:53;;;;;;;8.23;7.53;;;16.50;99.90;;;;;;4961028;28;20771;-96
2021/07/04 04:01:30;;;;;;;10.43;7.50;;;16.70;99.90;;;;;;4972048;28;20266;-96
2021/07/04 04:03:58;;;;;;;8.57;7.77;;;16.80;99.90;;;;;;4949460;28;20206;-96
2021/07/04 04:06:25;;;;;;;8.83;8.13;;;16.90;99.90;;;;;;4947763;28;20614;-96
2021/07/04 04:08:53;;;;;;;9.13;8.23;;;17.00;99.90;;;;;;4969109;28;20462;-96
2021/07/04 04:11:35;;;;;;;9.37;8.43;;;17.00;99.90;;;;;;4949389;28;20293;-96
2021/07/04 04:14:01;;;;;;;8.47;7.17;;;17.20;99.90;;;;;;4987052;28;20476;-96
2021/07/04 04:16:27;;;;;;;8.00;7.30;;;17.30;99.90;;;;;;4972002;28;20266;-96
2021/07/04 04:18:54;;;;;;;7.70;7.10;;;17.40;99.90;;;;;;4970138;28;20207;-96
2021/07/04 04:21:19;;;;;;;6.93;6.23;;;17.60;99.90;;;;;;4939097;28;20583;-94
2021/07/04 04:23:45;;;;;;;6.80;6.10;;;17.70;99.90;;;;;;4934207;28;20199;-95
2021/07/04 04:26:11;;;;;;;6.73;6.13;;;17.80;99.90;;;;;;4937095;28;20602;-94
2021/07/04 04:28:37;;;;;;;6.90;6.30;;;17.80;99.90;;;;;;4954330;28;20195;-95
2021/07/04 04:31:02;;;;;;;9.40;7.50;;;17.90;99.90;;;;;;4935773;28;20493;-95
2021/07/04 04:33:28;;;;;;;7.20;6.60;;;17.80;99.90;;;;;;4938199;28;20231;-93
2021/07/04 04:35:53;;;;;;;8.43;7.73;;;17.70;99.90;;;;;;4932638;28;20234;-95
2021/07/04 04:38:19;;;;;;;9.13;6.73;;;17.70;99.90;;;;;;4936624;28;20215;-94
2021/07/04 04:40:45;;;;;;;7.57;6.73;;;17.70;99.90;;;;;;4937840;28;20244;-95
2021/07/04 04:43:11;;;;;;;7.60;6.90;;;17.70;99.90;;;;;;4936189;28;20765;-95
2021/07/04 04:45:36;;;;;;;8.03;7.33;;;17.70;99.90;;;;;;4939760;28;20207;-96
2021/07/04 04:48:02;;;;;;;7.00;6.40;;;17.60;99.90;;;;;;4954003;28;21024;-96
2021/07/04 04:50:29;;;;;;;8.53;7.73;;;17.50;99.90;;;;;;4962498;28;20225;-96
2021/07/04 04:52:54;;;;;;;7.73;7.03;;;17.50;99.90;;;;;;4954597;28;20291;-96
2021/07/04 04:55:20;;;;;;;7.93;7.33;;;17.50;99.90;;;;;;4963583;28;20526;-96
2021/07/04 04:57:46;;;;;;;7.23;6.30;;;17.40;99.90;;;;;;4946102;28;20194;-96
2021/07/04 05:08:25;;;;;;;8.23;7.43;;;17.40;99.90;;;;;;5125804;23;20458;-96
2021/07/04 05:10:51;;;;;;;8.00;7.30;;;17.40;99.90;;;;;;4984161;28;20482;-96
2021/07/04 05:13:17;;;;;;;8.70;7.00;;;17.50;99.90;;;;;;4942344;28;20461;-96
2021/07/04 05:15:43;;;;;;;7.87;7.00;;;17.60;99.90;;;;;;4956581;28;20489;-95
2021/07/04 05:20:52;;;;;;;7.17;6.47;;;17.60;99.90;;;;;;5394489;23;20207;-96
2021/07/04 05:25:58;;;;;;;6.50;5.90;;;17.80;99.90;;;;;;5829606;23;20501;-95
2021/07/04 05:28:24;;;;;;;7.57;6.47;;;18.00;99.90;;;;;;4958916;28;20449;-95
2021/07/04 05:30:51;;;;;;;7.30;6.70;;;18.30;99.90;;;;;;4939396;28;20482;-95
2021/07/04 05:33:17;;;;;;;7.20;6.60;;;18.40;99.90;;;;;;4939647;28;20449;-94
2021/07/04 05:35:43;;;;;;;8.13;7.43;;;18.30;99.90;;;;;;4955676;28;20597;-94
2021/07/04 05:38:19;;;;;;;7.10;6.60;;;18.30;99.90;;;;;;4956738;28;21810;-94
2021/07/04 05:40:51;;;;;;;7.90;7.20;;;18.30;99.90;;;;;;4943942;28;20190;-95
2021/07/04 05:43:17;;;;;;;7.47;6.77;;;18.30;99.90;;;;;;4945133;28;20457;-95
2021/07/04 05:45:43;;;;;;;8.27;7.47;;;18.30;99.90;;;;;;4944400;28;20464;-95
2021/07/04 05:48:09;;;;;;;6.23;5.63;;;18.30;99.90;;;;;;4961150;28;20972;-95
2021/07/04 05:53:10;;;;;;;6.30;5.73;;;18.00;99.90;;;;;;5500141;23;20502;-95
2021/07/04 05:55:36;;;;;;;7.50;6.77;;;18.00;99.90;;;;;;4979498;28;20449;-94
2021/07/04 05:58:02;;;;;;;6.37;5.87;;;18.00;99.90;;;;;;4967837;28;20251;-93
2021/07/04 06:00:30;;;;;;;6.67;6.07;;;18.10;99.90;;;;;;4983489;28;20193;-95
2021/07/04 06:08:23;;;;;;;7.20;6.50;;;18.10;99.90;;;;;;4955647;28;20487;-96
2021/07/04 06:10:51;;;;;;;6.70;6.10;;;18.10;99.90;;;;;;4977758;23;21003;-94
2021/07/04 06:13:18;;;;;;;7.90;7.30;;;18.00;99.90;;;;;;4969157;28;20225;-96
2021/07/04 06:15:43;;;;;;;6.70;6.10;;;17.90;99.90;;;;;;4948903;28;20465;-95
2021/07/04 06:18:10;;;;;;;7.47;6.77;;;17.80;99.90;;;;;;4959199;28;20454;-93
2021/07/04 06:20:45;;;;;;;7.00;6.40;;;17.90;99.90;;;;;;4961349;28;20197;-93
2021/07/04 06:23:10;;;;;;;7.00;6.40;;;17.80;99.90;;;;;;4943554;28;20461;-92
2021/07/04 06:25:43;;;;;;;7.23;6.53;;;17.80;99.90;;;;;;4960321;28;20978;-93
2021/07/04 06:28:08;;;;;;;7.37;6.17;;;17.80;99.90;;;;;;4957631;28;20208;-93
2021/07/04 06:30:34;;;;;;;7.27;6.57;;;17.80;99.90;;;;;;4959877;28;20794;-93
2021/07/04 06:33:00;;;;;;;8.03;7.40;;;17.90;99.90;;;;;;4940513;28;20203;-95
2021/07/04 06:35:26;;;;;;;6.47;5.97;;;18.00;99.90;;;;;;4944909;28;20218;-94
2021/07/04 06:37:51;;;;;;;7.20;6.50;;;18.20;99.90;;;;;;4943901;28;20194;-94
2021/07/04 06:40:17;;;;;;;7.00;6.30;;;18.40;99.90;;;;;;4959274;28;20222;-95
2021/07/04 06:42:43;;;;;;;6.90;6.40;;;18.50;99.90;;;;;;4946381;28;20686;-95
2021/07/04 06:45:10;;;;;;;6.93;6.03;;;18.60;99.90;;;;;;4961990;28;20186;-96
2021/07/04 06:47:37;;;;;;;6.50;6.00;;;18.70;99.90;;;;;;4942630;28;20269;-93
2021/07/04 06:50:05;;;;;;;6.50;5.90;;;18.90;99.90;;;;;;4959087;28;20481;-93
2021/07/04 06:52:30;;;;;;;6.50;5.90;;;18.90;99.90;;;;;;4945031;28;20453;-95
2021/07/04 06:54:56;;;;;;;6.87;6.27;;;18.90;99.90;;;;;;4932786;28;20446;-93
2021/07/04 06:57:27;;;;;;;6.70;6.20;;;18.90;99.90;;;;;;4960953;28;20195;-92
2021/07/04 06:59:58;;;;;;;6.60;6.00;;;19.20;99.90;;;;;;4951791;28;20259;-95
2021/07/04 07:02:25;;;;;;;6.40;5.90;;;19.40;99.90;;;;;;4942417;28;20449;-91
2021/07/04 07:04:52;;;;;;;5.93;5.50;;;19.70;99.90;;;;;;4945234;28;20455;-93
2021/07/04 07:07:18;;;;;;;6.13;5.53;;;19.70;99.90;;;;;;4956274;28;20458;-92
2021/07/04 07:09:44;;;;;;;6.33;5.83;;;19.80;99.90;;;;;;4958239;28;20870;-93
2021/07/04 07:12:10;;;;;;;6.63;5.97;;;20.20;99.90;;;;;;4914045;28;1164844;-93
2021/07/04 07:14:37;;;;;;;6.20;5.67;;;20.40;99.90;;;;;;4953602;28;20194;-94
2021/07/04 07:17:03;;;;;;;6.13;5.63;;;20.60;99.90;;;;;;4955361;28;20265;-91
2021/07/04 07:19:29;;;;;;;6.03;5.20;;;20.50;99.90;;;;;;4940935;28;20455;-93
2021/07/04 07:21:55;;;;;;;6.03;5.53;;;20.60;99.90;;;;;;4940961;28;20850;-93
2021/07/04 07:24:20;;;;;;;6.50;5.97;;;20.80;99.90;;;;;;4939549;28;20199;-93
2021/07/04 07:26:46;;;;;;;7.40;6.23;;;20.60;99.90;;;;;;4943063;28;20601;-92
2021/07/04 07:29:12;;;;;;;7.30;6.70;;;20.60;99.90;;;;;;4941989;28;20219;-94
2021/07/04 07:31:37;;;;;;;6.67;5.97;;;20.20;99.90;;;;;;4942924;28;20658;-91
2021/07/04 07:34:07;;;;;;;6.80;6.30;;;20.30;99.90;;;;;;4956433;28;20183;-93
2021/07/04 07:36:32;;;;;;;6.83;5.73;;;20.10;99.90;;;;;;4954693;28;20187;-90
2021/07/04 07:38:58;;;;;;;6.87;6.37;;;19.90;99.90;;;;;;4941819;28;20461;-90
2021/07/04 07:41:24;;;;;;;6.70;6.10;;;19.80;99.90;;;;;;4956561;28;20233;-92
2021/07/04 07:43:50;;;;;;;7.20;6.50;;;20.00;99.90;;;;;;4941214;28;20282;-91
2021/07/04 07:46:16;;;;;;;6.83;6.30;;;20.20;99.90;;;;;;4943906;28;20226;-93
2021/07/04 07:48:42;;;;;;;6.47;5.97;;;20.40;99.90;;;;;;4959844;28;20525;-95
2021/07/04 07:51:08;;;;;;;5.63;5.20;;;20.40;99.90;;;;;;4960069;28;20481;-93
2021/07/04 07:53:34;;;;;;;6.60;5.67;;;20.40;99.90;;;;;;4957071;28;20435;-92
2021/07/04 07:55:59;;;;;;;5.93;5.33;;;20.40;99.90;;;;;;4960090;28;20604;-96
2021/07/04 07:58:25;;;;;;;5.50;5.10;;;20.50;99.90;;;;;;4963156;28;20203;-94
2021/07/04 08:00:51;;;;;;;6.80;5.60;;;20.80;99.90;;;;;;4960234;28;20666;-93
2021/07/04 08:03:17;;;;;;;6.43;5.90;;;21.00;99.90;;;;;;4956386;28;20218;-93
2021/07/04 08:05:43;;;;;;;5.77;5.37;;;20.90;99.90;;;;;;4953743;28;20290;-95
2021/07/04 08:08:10;;;;;;;6.10;5.50;;;21.00;99.90;;;;;;4960832;28;20230;-95
2021/07/04 08:10:36;;;;;;;5.77;5.27;;;21.10;99.90;;;;;;5055104;23;20242;-95
2021/07/04 08:15:37;;;;;;;6.10;5.60;;;21.10;99.90;;;;;;5235768;23;20555;-93
2021/07/04 08:18:03;;;;;;;6.23;5.73;;;20.70;99.90;;;;;;4994273;28;20449;-94
2021/07/04 08:20:31;;;;;;;5.60;5.10;;;20.90;99.90;;;;;;4980895;28;20865;-92
2021/07/04 08:22:56;;;;;;;5.80;5.40;;;21.00;99.90;;;;;;4990593;28;20292;-91
2021/07/04 08:25:22;;;;;;;6.57;6.07;;;21.40;99.90;;;;;;4992028;28;20589;-94
2021/07/04 08:27:48;;;;;;;5.80;5.30;;;21.80;99.90;;;;;;4987713;28;20208;-89
2021/07/04 08:30:15;;;;;;;5.20;4.80;;;22.30;99.90;;;;;;4978189;28;20779;-93
2021/07/04 08:32:40;;;;;;;6.20;5.60;;;22.60;99.90;;;;;;4993728;28;20205;-93
2021/07/04 08:35:09;;;;;;;5.70;5.30;;;22.70;99.90;;;;;;4986974;28;20477;-92
2021/07/04 08:37:34;;;;;;;5.53;5.07;;;22.40;99.90;;;;;;4967154;28;20215;-89
2021/07/04 08:40:05;;;;;;;5.70;4.93;;;22.50;99.90;;;;;;4976371;28;20958;-91
2021/07/04 08:42:32;;;;;;;5.07;4.67;;;22.10;99.90;;;;;;4972906;28;20212;-91
2021/07/04 08:44:58;;;;;;;4.80;4.40;;;22.40;99.90;;;;;;4989182;28;20455;-94
2021/07/04 08:47:24;;;;;;;4.60;4.30;;;22.70;99.90;;;;;;4989641;28;20501;-90
2021/07/04 08:49:52;;;;;;;4.10;3.80;;;22.80;99.90;;;;;;4969627;28;21000;-91
2021/07/04 08:52:18;;;;;;;4.50;4.20;;;22.80;99.90;;;;;;4975685;28;20450;-89
2021/07/04 08:54:44;;;;;;;4.73;4.33;;;22.60;99.90;;;;;;4988367;28;20454;-89
2021/07/04 08:57:11;;;;;;;5.10;4.70;;;22.50;99.90;;;;;;4987740;28;20452;-91
2021/07/04 08:59:46;;;;;;;4.80;4.43;;;22.60;99.90;;;;;;4988652;28;20448;-93
2021/07/04 09:02:15;;;;;;;4.73;4.33;;;23.10;99.90;;;;;;4974024;28;20463;-89
2021/07/04 09:05:07;;;;;;;4.63;4.27;;;22.70;99.90;;;;;;4972539;28;20912;-86
2021/07/04 09:07:34;;;;;;;4.37;4.07;;;22.60;99.90;;;;;;4968849;28;20986;-89
2021/07/04 09:10:03;;;;;;;4.60;4.20;;;23.10;99.90;;;;;;4975434;28;20620;-85
2021/07/04 09:12:52;;;;;;;4.80;4.40;;;23.10;99.90;;;;;;4974071;28;20660;-86
2021/07/04 09:15:40;;;;;;;4.57;4.23;;;23.30;99.90;;;;;;4985306;28;20448;-92
2021/07/04 09:18:16;;;;;;;4.63;4.23;;;22.90;99.90;;;;;;4968297;28;20473;-86
2021/07/04 09:20:41;;;;;;;4.83;4.43;;;22.70;99.90;;;;;;4970378;28;20487;-87
2021/07/04 09:23:08;;;;;;;4.50;4.20;;;22.80;99.90;;;;;;4971998;28;20519;-85
2021/07/04 09:25:39;;;;;;;4.70;4.40;;;23.00;99.90;;;;;;4969544;28;20286;-83
2021/07/04 09:28:13;;;;;;;5.30;4.90;;;23.00;99.90;;;;;;4987634;28;20813;-84
2021/07/04 09:30:50;;;;;;;5.30;4.80;;;23.40;99.90;;;;;;4972253;28;20488;-84
2021/07/04 09:33:32;;;;;;;5.30;4.90;;;23.60;99.90;;;;;;4970946;28;20444;-84
2021/07/04 09:36:01;;;;;;;5.27;4.87;;;23.80;99.90;;;;;;4973042;28;20452;-84
2021/07/04 09:38:46;;;;;;;5.23;4.73;;;23.90;99.90;;;;;;4973449;28;20992;-84
2021/07/04 09:41:15;;;;;;;5.20;4.80;;;23.90;99.90;;;;;;4973760;28;20463;-84
2021/07/04 09:43:42;;;;;;;5.83;5.23;;;24.30;99.90;;;;;;4972979;28;20448;-84
2021/07/04 09:46:11;;;;;;;5.30;5.00;;;24.20;99.90;;;;;;4987890;28;20532;-84
2021/07/04 09:48:44;;;;;;;5.13;4.83;;;24.40;99.90;;;;;;4973118;28;20444;-84
2021/07/04 09:51:20;;;;;;;4.50;4.20;;;24.60;99.00;;;;;;4973507;28;20835;-83
2021/07/04 09:53:56;;;;;;;5.13;4.73;;;25.10;98.00;;;;;;4972219;28;20582;-84
2021/07/04 09:56:29;;;;;;;5.07;4.50;;;24.80;97.80;;;;;;4989959;28;20436;-84
2021/07/04 09:58:57;;;;;;;4.50;4.20;;;24.30;98.20;;;;;;4990266;28;20520;-83
2021/07/04 10:01:36;;;;;;;5.07;4.67;;;23.80;99.30;;;;;;4972597;28;20524;-85
2021/07/04 10:04:05;;;;;;;5.40;5.00;;;23.90;99.90;;;;;;4970981;28;20453;-83
2021/07/04 10:06:47;;;;;;;4.83;4.53;;;24.20;99.70;;;;;;4973715;28;20436;-83
2021/07/04 10:09:14;;;;;;;4.87;4.50;;;24.20;99.60;;;;;;4972315;28;20491;-84
2021/07/04 10:11:39;;;;;;;4.63;4.33;;;24.90;99.10;;;;;;4982726;28;20472;-86
2021/07/04 10:14:05;;;;;;;4.70;4.40;;;24.90;98.90;;;;;;4973875;28;20508;-84
2021/07/04 10:16:32;;;;;;;5.60;5.10;;;24.80;98.60;;;;;;4968202;28;20186;-84
2021/07/04 10:19:04;;;;;;;4.73;4.33;;;24.40;99.30;;;;;;4985911;28;20578;-83
2021/07/04 10:21:32;;;;;;;4.87;4.40;;;24.40;99.30;;;;;;4987542;28;20484;-83
2021/07/04 10:23:58;;;;;;;5.40;5.00;;;24.90;99.60;;;;;;4973791;28;20444;-86
2021/07/04 10:26:25;;;;;;;6.30;4.40;;;25.00;99.00;;;;;;4978123;28;20452;-85
2021/07/04 10:28:57;;;;;;;4.80;4.50;;;25.00;98.70;;;;;;4976285;28;20555;-85
2021/07/04 10:31:24;;;;;;;4.70;4.40;;;25.00;98.50;;;;;;4983307;28;20579;-88
2021/07/04 10:34:15;;;;;;;5.00;4.60;;;24.50;98.60;;;;;;4972291;28;20456;-88
2021/07/04 10:36:58;;;;;;;4.83;4.43;;;24.20;98.20;;;;;;4973990;28;20539;-89
2021/07/04 10:39:25;;;;;;;4.47;4.17;;;23.80;99.20;;;;;;4972732;28;20471;-89
2021/07/04 10:42:01;;;;;;;4.90;4.50;;;23.80;99.50;;;;;;4976348;28;20503;-89
2021/07/04 10:44:43;;;;;;;5.17;4.87;;;23.70;99.30;;;;;;4975359;28;20452;-88
2021/07/04 10:47:21;;;;;;;4.40;4.00;;;23.70;99.40;;;;;;4971470;28;20542;-89
2021/07/04 10:50:05;;;;;;;4.40;4.10;;;23.80;98.80;;;;;;4968919;28;21278;-88
2021/07/04 10:52:37;;;;;;;6.23;4.13;;;24.00;99.10;;;;;;4971540;28;20456;-89
2021/07/04 10:55:09;;;;;;;4.40;3.90;;;23.90;98.40;;;;;;4976523;28;20447;-89
2021/07/04 10:58:04;;;;;;;4.47;4.17;;;23.70;99.00;;;;;;4974724;28;20938;-89
2021/07/04 11:00:48;;;;;;;4.40;4.10;;;23.60;99.10;;;;;;4977291;28;20515;-87
2021/07/04 11:03:32;;;;;;;4.60;4.30;;;23.70;99.10;;;;;;4986690;28;20460;-85
2021/07/04 11:06:16;;;;;;;4.80;4.40;;;23.90;99.90;;;;;;4974474;28;20810;-85
2021/07/04 11:08:52;;;;;;;4.60;4.30;;;23.80;99.60;;;;;;4968083;28;20444;-86
2021/07/04 11:11:28;;;;;;;4.90;4.50;;;24.00;99.70;;;;;;4973257;28;20480;-86
2021/07/04 11:14:08;;;;;;;4.50;4.20;;;24.10;99.00;;;;;;4971246;28;20532;-85
2021/07/04 11:16:49;;;;;;;4.03;3.73;;;24.00;98.90;;;;;;4957893;28;20835;-87
2021/07/04 11:19:23;;;;;;;4.40;4.10;;;24.00;98.50;;;;;;4969181;28;20452;-86
2021/07/04 11:21:52;;;;;;;7.83;4.43;;;23.90;99.10;;;;;;4975662;28;20441;-87
2021/07/04 11:27:51;;;;;;;4.70;4.40;;;24.30;99.30;;;;;;4974621;28;20992;-88
2021/07/04 11:30:27;;;;;;;4.40;4.10;;;24.60;98.10;;;;;;4973475;28;20480;-87
2021/07/04 11:33:18;;;;;;;4.13;3.70;;;24.80;97.90;;;;;;4956154;28;20454;-87
2021/07/04 11:35:47;;;;;;;3.97;3.77;;;25.00;96.60;;;;;;4974327;28;20441;-87
2021/07/04 11:38:23;;;;;;;4.80;4.40;;;24.70;96.80;;;;;;4970479;28;20452;-87
2021/07/04 11:40:57;;;;;;;4.73;4.33;;;24.50;96.80;;;;;;4972604;28;21128;-88
2021/07/04 11:43:43;;;;;;;4.57;4.27;;;24.60;97.10;;;;;;4970558;28;20456;-87
2021/07/04 11:46:12;;;;;;;4.60;4.30;;;24.80;96.80;;;;;;4973291;28;20498;-87
2021/07/04 11:49:20;;;;;;;4.33;4.03;;;25.20;98.20;;;;;;4985452;28;20530;-87
2021/07/04 11:51:53;;;;;;;3.80;3.50;;;25.40;97.30;;;;;;4971579;28;20480;-86
2021/07/04 11:54:19;;;;;;;13.50;4.43;;;25.00;96.00;;;;;;4975216;28;20520;-87
2021/07/04 11:56:51;;;;;;;4.80;4.40;;;24.90;95.40;;;;;;4974236;28;20487;-87
2021/07/04 11:59:25;;;;;;;4.50;4.20;;;25.00;95.10;;;;;;4980693;28;20185;-87
2021/07/04 12:01:57;;;;;;;5.17;4.77;;;24.80;95.10;;;;;;4987186;28;20452;-86
2021/07/04 12:04:37;;;;;;;4.70;4.30;;;24.50;95.90;;;;;;4970836;28;20483;-86
2021/07/04 12:07:14;;;;;;;4.30;4.00;;;23.90;97.30;;;;;;4971819;28;20444;-87
2021/07/04 12:09:56;;;;;;;5.17;4.77;;;23.60;97.80;;;;;;4971631;28;20554;-87
2021/07/04 12:12:52;;;;;;;4.47;4.17;;;23.60;97.60;;;;;;4972008;28;20453;-87
2021/07/04 12:15:20;;;;;;;5.20;4.70;;;23.50;98.20;;;;;;4974052;28;20536;-87
2021/07/04 12:17:53;;;;;;;6.30;5.80;;;23.20;98.60;;;;;;4973976;28;20460;-88
2021/07/04 12:20:32;;;;;;;5.63;5.00;;;23.20;98.70;;;;;;4973670;28;20454;-88
2021/07/04 12:23:05;;;;;;;5.57;5.17;;;23.30;98.40;;;;;;4972254;28;20976;-88
2021/07/04 12:26:11;;;;;;;4.83;4.50;;;23.60;98.80;;;;;;4972437;28;20453;-87
2021/07/04 12:28:40;;;;;;;5.60;5.20;;;23.90;98.60;;;;;;4956665;28;21081;-88
2021/07/04 12:31:14;;;;;;;5.17;4.77;;;24.20;98.20;;;;;;4973596;28;20948;-88
2021/07/04 12:33:45;;;;;;;5.37;4.97;;;24.50;98.10;;;;;;4975948;28;20441;-90
2021/07/04 12:36:12;;;;;;;5.57;5.03;;;25.00;97.30;;;;;;4971941;28;20849;-87
2021/07/04 12:38:46;;;;;;;5.27;4.87;;;24.90;97.00;;;;;;4984272;28;20441;-88
2021/07/04 12:41:14;;;;;;;5.07;4.67;;;24.80;96.90;;;;;;4972604;28;20472;-87
2021/07/04 12:43:42;;;;;;;5.50;5.10;;;24.80;97.10;;;;;;4973440;28;20771;-87
2021/07/04 12:46:18;;;;;;;6.77;6.17;;;24.30;97.60;;;;;;4971089;28;20959;-88
2021/07/04 12:48:47;;;;;;;5.50;5.10;;;24.30;98.20;;;;;;4971612;28;20459;-88
2021/07/04 12:51:22;;;;;;;5.73;5.33;;;24.60;98.20;;;;;;4973114;28;20868;-88
2021/07/04 12:53:53;;;;;;;5.90;5.50;;;25.40;96.90;;;;;;4970771;28;20900;-90
2021/07/04 12:56:28;;;;;;;5.67;5.30;;;25.70;96.40;;;;;;4974719;28;20444;-88
2021/07/04 12:59:06;;;;;;;5.53;5.13;;;25.50;95.80;;;;;;4987308;28;20473;-87
2021/07/04 13:01:35;;;;;;;5.87;5.37;;;24.60;97.60;;;;;;4985877;28;20578;-88
2021/07/04 13:04:18;;;;;;;5.20;4.80;;;24.50;98.40;;;;;;4973272;28;20476;-88
2021/07/04 13:07:21;;;;;;;5.10;4.70;;;24.50;98.20;;;;;;4988381;28;20444;-88
2021/07/04 13:10:31;;;;;;;5.50;5.00;;;24.70;96.90;;;;;;4970749;28;20475;-89
2021/07/04 13:13:10;;;;;;;5.20;4.80;;;25.10;97.60;;;;;;4976072;28;20456;-89
2021/07/04 13:15:37;;;;;;;5.57;5.17;;;24.50;97.80;;;;;;4977132;28;20428;-88
2021/07/04 13:18:03;;;;;;;5.90;4.87;;;24.50;98.00;;;;;;4977759;28;20456;-89
2021/07/04 13:20:38;;;;;;;4.93;4.60;;;23.90;98.80;;;;;;4990709;28;20437;-88
2021/07/04 13:23:06;;;;;;;4.60;4.30;;;24.10;98.20;;;;;;4978312;28;20455;-87
2021/07/04 13:25:34;;;;;;;5.20;4.47;;;24.50;97.60;;;;;;4977272;28;20875;-88
2021/07/04 13:28:17;;;;;;;4.40;4.10;;;24.90;97.00;;;;;;4990209;28;20436;-88
2021/07/04 13:30:53;;;;;;;4.60;4.30;;;25.10;96.10;;;;;;4968623;28;20488;-89
2021/07/04 13:33:34;;;;;;;4.57;4.27;;;25.30;96.20;;;;;;4975184;28;20436;-87
2021/07/04 13:36:13;;;;;;;4.90;4.60;;;25.30;96.20;;;;;;4976065;28;20467;-87
2021/07/04 13:38:57;;;;;;;4.80;4.47;;;25.50;95.40;;;;;;4978754;28;20443;-89
2021/07/04 13:41:28;;;;;;;4.47;4.17;;;26.00;96.00;;;;;;4977254;28;20444;-89
2021/07/04 13:43:54;;;;;;;4.67;4.27;;;27.40;92.80;;;;;;4975827;28;20455;-89
2021/07/04 13:46:20;;;;;;;4.17;3.87;;;26.80;92.90;;;;;;4971371;28;20441;-90
2021/07/04 13:48:45;;;;;;;4.33;4.03;;;27.30;93.20;;;;;;4973179;28;21449;-90
2021/07/04 13:51:11;;;;;;;3.87;3.60;;;27.00;92.90;;;;;;4974859;28;20225;-90
2021/07/04 13:53:37;;;;;;;4.20;3.90;;;25.40;94.40;;;;;;4978704;28;20177;-90
2021/07/04 13:56:04;;;;;;;3.70;3.40;;;25.60;94.60;;;;;;4987689;28;20644;-89
2021/07/04 13:58:30;;;;;;;2.83;2.63;;;25.60;94.60;;;;;;4975113;28;20444;-89
2021/07/04 14:00:58;;;;;;;3.03;2.83;;;25.80;93.20;;;;;;4979667;28;20451;-91
2021/07/04 14:03:23;;;;;;;2.87;2.67;;;26.40;92.00;;;;;;4976241;28;20272;-90
2021/07/04 14:05:49;;;;;;;4.13;3.20;;;27.00;90.70;;;;;;4978456;28;20575;-92